createdAt,value
2022-10-17T00:00:13.398Z,13.68
2022-10-17T00:03:15.194Z,13.70
2022-10-17T00:06:18.059Z,13.68
2022-10-17T00:09:19.706Z,13.69
2022-10-17T00:12:21.536Z,13.68
2022-10-17T00:15:23.734Z,13.67
2022-10-17T00:18:25.579Z,13.63
2022-10-17T00:21:28.610Z,13.66
2022-10-17T00:24:30.720Z,13.64
2022-10-17T00:27:34.817Z,13.63
2022-10-17T00:30:36.373Z,13.64
2022-10-17T00:33:39.259Z,13.64
2022-10-17T00:36:42.348Z,13.61
2022-10-17T00:39:43.944Z,13.62
2022-10-17T00:42:45.699Z,13.64
2022-10-17T00:45:47.390Z,13.67
2022-10-17T00:48:50.043Z,13.70
2022-10-17T00:51:54.460Z,13.77
2022-10-17T00:54:58.048Z,13.79
2022-10-17T00:58:02.052Z,13.76
2022-10-17T01:01:03.801Z,13.78
2022-10-17T01:04:05.620Z,13.81
2022-10-17T01:07:08.836Z,13.79
2022-10-17T01:10:11.090Z,13.79
2022-10-17T01:13:17.572Z,13.79
2022-10-17T01:16:25.653Z,13.81
2022-10-17T01:19:46.330Z,13.85
2022-10-17T01:22:52.697Z,13.88
2022-10-17T01:25:57.389Z,13.89
2022-10-17T01:29:16.203Z,13.93
2022-10-17T01:32:23.525Z,13.90
2022-10-17T01:35:28.326Z,13.90
2022-10-17T01:38:33.601Z,13.91
2022-10-17T01:41:42.849Z,13.91
2022-10-17T01:44:47.813Z,13.97
2022-10-17T01:47:52.417Z,13.97
2022-10-17T01:50:57.220Z,13.96
2022-10-17T01:54:00.951Z,14.00
2022-10-17T01:57:04.506Z,14.01
2022-10-17T02:00:08.447Z,14.02
2022-10-17T02:03:13.748Z,14.05
2022-10-17T02:06:15.345Z,14.12
2022-10-17T02:09:21.259Z,14.18
2022-10-17T02:12:27.949Z,14.16
2022-10-17T02:15:39.755Z,14.17
2022-10-17T02:18:54.751Z,14.26
2022-10-17T02:22:04.355Z,14.24
2022-10-17T02:25:09.664Z,14.24
2022-10-17T02:28:17.940Z,14.26
2022-10-17T02:31:22.778Z,14.24
2022-10-17T02:34:26.792Z,14.23
2022-10-17T02:37:29.532Z,14.23
2022-10-17T02:40:32.085Z,14.25
2022-10-17T02:43:34.543Z,14.25
2022-10-17T02:46:37.441Z,14.25
2022-10-17T02:49:41.969Z,14.26
2022-10-17T02:52:48.855Z,14.23
2022-10-17T02:55:55.185Z,14.21
2022-10-17T02:58:58.966Z,14.19
2022-10-17T03:02:03.446Z,14.21
2022-10-17T03:05:07.228Z,14.25
2022-10-17T03:08:08.850Z,14.28
2022-10-17T03:11:10.388Z,14.29
2022-10-17T03:14:12.039Z,14.29
2022-10-17T03:17:13.605Z,14.32
2022-10-17T03:20:16.765Z,14.32
2022-10-17T03:23:18.643Z,14.33
2022-10-17T03:26:20.283Z,14.32
2022-10-17T03:29:21.995Z,14.31
2022-10-17T03:32:23.673Z,14.32
2022-10-17T03:35:26.802Z,14.32
2022-10-17T03:38:28.452Z,14.27
2022-10-17T03:41:30.056Z,14.27
2022-10-17T03:44:31.621Z,14.25
2022-10-17T03:47:33.267Z,14.25
2022-10-17T03:50:36.418Z,14.24
2022-10-17T03:53:38.096Z,14.22
2022-10-17T03:56:39.844Z,14.23
2022-10-17T03:59:41.370Z,14.29
2022-10-17T04:02:44.937Z,14.29
2022-10-17T04:05:47.826Z,14.30
2022-10-17T04:08:50.721Z,14.26
2022-10-17T04:11:52.511Z,14.29
2022-10-17T04:14:54.711Z,14.27
2022-10-17T04:17:57.270Z,14.25
2022-10-17T04:21:03.184Z,14.27
2022-10-17T04:24:05.236Z,14.26
2022-10-17T04:27:06.997Z,14.25
2022-10-17T04:30:08.962Z,14.26
2022-10-17T04:33:10.634Z,14.29
2022-10-17T04:36:14.457Z,14.29
2022-10-17T04:39:16.372Z,14.30
2022-10-17T04:42:18.084Z,14.30
2022-10-17T04:45:19.553Z,14.35
2022-10-17T04:48:21.240Z,14.36
2022-10-17T04:51:26.527Z,14.34
2022-10-17T04:54:28.332Z,14.32
2022-10-17T04:57:29.925Z,14.31
2022-10-17T05:00:31.516Z,14.33
2022-10-17T05:03:33.558Z,14.34
2022-10-17T05:06:37.886Z,14.34
2022-10-17T05:09:39.563Z,14.35
2022-10-17T05:12:41.215Z,14.34
2022-10-17T05:15:46.261Z,14.31
2022-10-17T05:18:52.700Z,14.27
2022-10-17T05:21:56.195Z,14.25
2022-10-17T05:24:57.802Z,14.21
2022-10-17T05:27:59.521Z,14.17
2022-10-17T05:31:03.039Z,14.15
2022-10-17T05:34:07.048Z,14.06
2022-10-17T05:37:12.160Z,14.00
2022-10-17T05:40:13.796Z,13.96
2022-10-17T05:43:15.261Z,13.95
2022-10-17T05:46:16.873Z,13.93
2022-10-17T05:49:31.954Z,13.90
2022-10-17T05:52:43.909Z,13.89
2022-10-17T05:55:55.112Z,13.91
2022-10-17T05:59:00.705Z,13.88
2022-10-17T06:02:02.754Z,13.86
2022-10-17T06:05:04.451Z,13.84
2022-10-17T06:08:07.290Z,13.82
2022-10-17T06:11:10.269Z,13.80
2022-10-17T06:14:12.357Z,13.81
2022-10-17T06:17:16.274Z,13.81
2022-10-17T06:20:20.637Z,13.82
2022-10-17T06:23:23.591Z,13.83
2022-10-17T06:26:25.051Z,13.83
2022-10-17T06:29:27.658Z,13.82
2022-10-17T06:32:29.424Z,13.83
2022-10-17T06:35:31.267Z,13.84
2022-10-17T06:38:35.575Z,13.86
2022-10-17T06:41:42.019Z,13.93
2022-10-17T06:44:43.497Z,14.02
2022-10-17T06:47:50.739Z,14.16
2022-10-17T06:50:52.257Z,14.28
2022-10-17T06:53:56.930Z,14.36
2022-10-17T06:56:58.430Z,14.38
2022-10-17T06:59:59.899Z,14.36
2022-10-17T07:03:01.337Z,14.37
2022-10-17T07:06:03.543Z,14.40
2022-10-17T07:09:07.030Z,14.41
2022-10-17T07:12:08.813Z,14.45
2022-10-17T07:15:10.785Z,14.51
2022-10-17T07:18:12.782Z,14.58
2022-10-17T07:21:14.396Z,14.68
2022-10-17T07:24:17.775Z,14.75
2022-10-17T07:27:19.382Z,14.86
2022-10-17T07:30:21.233Z,14.94
2022-10-17T07:33:22.865Z,15.04
2022-10-17T07:36:24.776Z,15.04
2022-10-17T07:39:30.384Z,15.12
2022-10-17T07:42:31.886Z,15.18
2022-10-17T07:45:33.482Z,15.26
2022-10-17T07:48:35.385Z,15.30
2022-10-17T07:51:37.143Z,15.34
2022-10-17T07:54:40.203Z,15.38
2022-10-17T07:57:41.763Z,15.43
2022-10-17T08:00:48.519Z,15.45
2022-10-17T08:03:50.306Z,15.47
2022-10-17T08:06:56.389Z,15.54
2022-10-17T08:10:03.898Z,15.61
2022-10-17T08:13:05.479Z,15.67
2022-10-17T08:16:09.153Z,15.76
2022-10-17T08:19:11.699Z,15.84
2022-10-17T08:22:15.504Z,15.92
2022-10-17T08:25:18.336Z,16.00
2022-10-17T08:28:20.054Z,16.05
2022-10-17T08:31:21.955Z,16.10
2022-10-17T08:34:23.751Z,16.14
2022-10-17T08:37:27.761Z,16.16
2022-10-17T08:40:33.771Z,16.22
2022-10-17T08:43:42.271Z,16.26
2022-10-17T08:46:45.391Z,16.32
2022-10-17T08:49:48.947Z,16.36
2022-10-17T08:52:54.866Z,16.41
2022-10-17T08:55:59.808Z,16.48
2022-10-17T08:59:01.516Z,16.53
2022-10-17T09:02:04.789Z,16.59
2022-10-17T09:05:25.482Z,16.65
2022-10-17T09:08:33.571Z,16.78
2022-10-17T09:11:43.441Z,16.90
2022-10-17T09:14:50.771Z,16.99
2022-10-17T09:17:54.955Z,17.12
2022-10-17T09:20:58.546Z,17.26
2022-10-17T09:24:09.238Z,17.27
2022-10-17T09:27:19.008Z,17.32
2022-10-17T09:30:44.247Z,17.32
2022-10-17T09:33:55.521Z,17.29
2022-10-17T09:36:58.503Z,17.23
2022-10-17T09:40:00.047Z,17.23
2022-10-17T09:43:05.162Z,17.34
2022-10-17T09:46:09.449Z,17.47
2022-10-17T09:49:17.486Z,17.58
2022-10-17T09:52:22.453Z,17.73
2022-10-17T09:55:30.832Z,17.87
2022-10-17T09:58:50.406Z,17.98
2022-10-17T10:02:07.147Z,18.02
2022-10-17T10:05:19.071Z,18.12
2022-10-17T10:08:21.506Z,18.26
2022-10-17T10:11:24.561Z,18.28
2022-10-17T10:14:29.232Z,18.30
2022-10-17T10:17:37.846Z,18.37
2022-10-17T10:20:39.505Z,18.45
2022-10-17T10:23:42.303Z,18.38
2022-10-17T10:26:44.590Z,18.44
2022-10-17T10:29:49.439Z,18.41
2022-10-17T10:32:52.393Z,18.36
2022-10-17T10:35:58.787Z,18.34
2022-10-17T10:39:02.587Z,18.35
2022-10-17T10:42:08.138Z,18.47
2022-10-17T10:45:29.311Z,18.61
2022-10-17T10:48:50.263Z,18.59
2022-10-17T10:51:52.319Z,18.69
2022-10-17T10:55:00.140Z,18.71
2022-10-17T10:58:03.729Z,18.84
2022-10-17T11:01:07.100Z,18.84
2022-10-17T11:04:17.629Z,18.92
2022-10-17T11:07:22.613Z,19.00
2022-10-17T11:10:28.227Z,19.01
2022-10-17T11:13:32.004Z,19.06
2022-10-17T11:16:37.186Z,19.10
2022-10-17T11:19:44.538Z,19.17
2022-10-17T11:22:48.552Z,19.31
2022-10-17T11:25:51.440Z,19.44
2022-10-17T11:28:53.835Z,19.65
2022-10-17T11:31:57.444Z,19.74
2022-10-17T11:35:05.765Z,19.85
2022-10-17T11:38:14.587Z,19.58
2022-10-17T11:41:19.610Z,19.44
2022-10-17T11:44:23.428Z,19.38
2022-10-17T11:47:30.207Z,19.34
2022-10-17T11:53:58.101Z,19.37
2022-10-17T11:57:13.889Z,19.33
2022-10-17T12:00:21.122Z,19.31
2022-10-17T12:03:49.730Z,19.30
2022-10-17T12:07:02.504Z,19.31
2022-10-17T12:10:13.568Z,19.30
2022-10-17T12:13:33.660Z,19.33
2022-10-17T12:19:43.566Z,19.37
2022-10-17T12:22:48.442Z,19.36
2022-10-17T12:25:51.833Z,19.40
2022-10-17T12:28:53.568Z,19.41
2022-10-17T12:31:55.214Z,19.36
2022-10-17T12:34:57.592Z,19.30
2022-10-17T12:38:15.136Z,19.30
2022-10-17T12:41:16.687Z,19.26
2022-10-17T12:44:34.909Z,19.23
2022-10-17T12:47:38.560Z,19.32
2022-10-17T12:51:17.647Z,19.41
2022-10-17T12:54:22.734Z,19.38
2022-10-17T12:57:27.566Z,19.36
2022-10-17T13:00:32.699Z,19.38
2022-10-17T13:03:35.853Z,19.45
2022-10-17T13:06:40.813Z,19.37
2022-10-17T13:09:44.626Z,19.36
2022-10-17T13:12:46.615Z,19.38
2022-10-17T13:15:49.009Z,19.40
2022-10-17T13:18:52.635Z,19.34
2022-10-17T13:22:01.087Z,19.29
2022-10-17T13:25:10.209Z,19.23
2022-10-17T13:28:13.662Z,19.24
2022-10-17T13:31:27.624Z,19.27
2022-10-17T13:34:29.886Z,19.20
2022-10-17T13:37:31.391Z,19.20
2022-10-17T13:40:49.033Z,19.22
2022-10-17T13:43:52.642Z,19.18
2022-10-17T13:46:57.163Z,19.17
2022-10-17T13:49:59.266Z,19.19
2022-10-17T13:53:17.843Z,19.18
2022-10-17T13:56:30.139Z,19.18
2022-10-17T13:59:34.447Z,19.14
2022-10-17T14:02:36.099Z,19.14
2022-10-17T14:05:52.536Z,19.13
2022-10-17T14:08:55.827Z,19.10
2022-10-17T14:12:01.413Z,19.08
2022-10-17T14:15:11.471Z,19.08
2022-10-17T14:18:17.283Z,19.07
2022-10-17T14:21:37.196Z,19.04
2022-10-17T14:24:43.609Z,19.01
2022-10-17T14:27:55.749Z,18.99
2022-10-17T14:31:09.204Z,18.98
2022-10-17T14:34:20.771Z,18.99
2022-10-17T14:37:28.804Z,19.01
2022-10-17T14:40:32.448Z,19.02
2022-10-17T14:43:35.681Z,19.04
2022-10-17T14:46:37.795Z,19.04
2022-10-17T14:49:40.949Z,18.99
2022-10-17T14:52:58.443Z,18.90
2022-10-17T14:56:00.835Z,18.81
2022-10-17T14:59:07.540Z,18.77
2022-10-17T15:02:13.257Z,18.75
2022-10-17T15:05:15.737Z,18.74
2022-10-17T15:08:18.207Z,18.74
2022-10-17T15:11:22.995Z,18.69
2022-10-17T15:14:28.264Z,18.74
2022-10-17T15:17:30.739Z,18.70
2022-10-17T15:20:32.967Z,18.70
2022-10-17T15:23:34.524Z,18.73
2022-10-17T15:26:36.118Z,18.67
2022-10-17T15:29:38.947Z,18.61
2022-10-17T15:32:40.973Z,18.58
2022-10-17T15:35:43.641Z,18.55
2022-10-17T15:38:45.157Z,18.56
2022-10-17T15:41:48.088Z,18.53
2022-10-17T15:44:51.354Z,18.51
2022-10-17T15:47:54.298Z,18.51
2022-10-17T15:50:56.241Z,18.51
2022-10-17T15:54:02.567Z,18.52
2022-10-17T15:57:04.328Z,18.54
2022-10-17T16:00:16.568Z,18.51
2022-10-17T16:03:18.512Z,18.45
2022-10-17T16:06:21.257Z,18.37
2022-10-17T16:09:23.116Z,18.38
2022-10-17T16:12:27.455Z,18.38
2022-10-17T16:15:30.689Z,18.38
2022-10-17T16:18:32.454Z,18.43
2022-10-17T16:21:35.343Z,18.46
2022-10-17T16:24:37.113Z,18.37
2022-10-17T16:27:39.409Z,18.34
2022-10-17T16:30:46.884Z,18.31
2022-10-17T16:33:49.170Z,18.30
2022-10-17T16:36:50.973Z,18.36
2022-10-17T16:39:53.583Z,18.34
2022-10-17T16:42:55.469Z,18.37
2022-10-17T16:45:58.362Z,18.35
2022-10-17T16:48:59.970Z,18.37
2022-10-17T16:52:01.546Z,18.38
2022-10-17T16:55:03.421Z,18.33
2022-10-17T16:58:05.113Z,18.32
2022-10-17T17:01:09.056Z,18.25
2022-10-17T17:04:10.621Z,18.20
2022-10-17T17:07:12.370Z,18.17
2022-10-17T17:10:13.934Z,18.13
2022-10-17T17:13:16.076Z,18.12
2022-10-17T17:16:21.464Z,18.09
2022-10-17T17:19:23.067Z,18.03
2022-10-17T17:22:24.599Z,17.96
2022-10-17T17:25:26.438Z,17.90
2022-10-17T17:28:28.553Z,17.76
2022-10-17T17:31:32.883Z,17.57
2022-10-17T17:34:36.567Z,17.45
2022-10-17T17:37:38.193Z,17.34
2022-10-17T17:40:48.057Z,17.24
2022-10-17T17:43:51.995Z,17.13
2022-10-17T17:46:54.814Z,17.09
2022-10-17T17:49:56.413Z,17.00
2022-10-17T17:52:58.032Z,16.94
2022-10-17T17:56:03.517Z,16.90
2022-10-17T17:59:05.833Z,16.86
2022-10-17T18:02:13.992Z,16.84
2022-10-17T18:05:15.830Z,16.80
2022-10-17T18:08:17.591Z,16.77
2022-10-17T18:11:21.967Z,16.74
2022-10-17T18:14:24.045Z,16.69
2022-10-17T18:17:27.968Z,16.68
2022-10-17T18:20:30.074Z,16.63
2022-10-17T18:23:31.538Z,16.59
2022-10-17T18:26:33.681Z,16.58
2022-10-17T18:29:35.957Z,16.55
2022-10-17T18:32:39.092Z,16.53
2022-10-17T18:35:40.698Z,16.50
2022-10-17T18:38:42.787Z,16.46
2022-10-17T18:41:44.583Z,16.45
2022-10-17T18:44:47.688Z,16.41
2022-10-17T18:47:52.834Z,16.39
2022-10-17T18:50:54.720Z,16.37
2022-10-17T18:53:58.662Z,16.35
2022-10-17T18:57:00.621Z,16.32
2022-10-17T19:00:02.342Z,16.32
2022-10-17T19:03:05.386Z,16.32
2022-10-17T19:06:08.582Z,16.32
2022-10-17T19:09:11.959Z,16.31
2022-10-17T19:12:13.529Z,16.32
2022-10-17T19:15:15.434Z,16.32
2022-10-17T19:18:18.387Z,16.29
2022-10-17T19:21:21.930Z,16.28
2022-10-17T19:24:25.071Z,16.28
2022-10-17T19:27:26.668Z,16.26
2022-10-17T19:30:28.661Z,16.26
2022-10-17T19:33:32.875Z,16.25
2022-10-17T19:36:34.855Z,16.23
2022-10-17T19:39:36.966Z,16.21
2022-10-17T19:42:38.613Z,16.21
2022-10-17T19:45:40.284Z,16.18
2022-10-17T19:48:44.145Z,16.16
2022-10-17T19:51:45.957Z,16.14
2022-10-17T19:54:47.658Z,16.14
2022-10-17T19:57:49.471Z,16.12
2022-10-17T20:00:52.560Z,16.09
2022-10-17T20:03:55.996Z,16.08
2022-10-17T20:07:00.966Z,16.08
2022-10-17T20:10:03.290Z,16.09
2022-10-17T20:13:05.097Z,16.10
2022-10-17T20:16:07.833Z,16.08
2022-10-17T20:19:12.275Z,16.06
2022-10-17T20:22:14.092Z,16.05
2022-10-17T20:25:16.177Z,16.02
2022-10-17T20:28:17.949Z,16.00
2022-10-17T20:31:19.818Z,15.99
2022-10-17T20:34:23.232Z,15.99
2022-10-17T20:37:25.418Z,15.99
2022-10-17T20:40:34.992Z,16.00
2022-10-17T20:43:37.691Z,15.99
2022-10-17T20:46:44.789Z,16.00
2022-10-17T20:49:51.800Z,16.01
2022-10-17T20:53:05.391Z,16.01
2022-10-17T20:56:21.073Z,16.01
2022-10-17T20:59:22.967Z,16.01
2022-10-17T21:02:24.753Z,16.00
2022-10-17T21:05:28.094Z,15.99
2022-10-17T21:08:29.745Z,16.00
2022-10-17T21:11:31.524Z,16.00
2022-10-17T21:14:33.523Z,15.99
2022-10-17T21:17:35.073Z,15.99
2022-10-17T21:20:38.115Z,15.97
2022-10-17T21:23:40.476Z,15.98
2022-10-17T21:26:42.765Z,15.97
2022-10-17T21:29:47.819Z,15.97
2022-10-17T21:32:53.791Z,15.93
2022-10-17T21:35:57.051Z,15.92
2022-10-17T21:38:58.755Z,15.87
2022-10-17T21:42:00.395Z,15.86
2022-10-17T21:45:04.699Z,15.86
2022-10-17T21:48:13.146Z,15.85
2022-10-17T21:51:17.127Z,15.83
2022-10-17T21:54:19.199Z,15.84
2022-10-17T21:57:20.891Z,15.83
2022-10-17T22:00:22.473Z,15.84
2022-10-17T22:03:24.629Z,15.82
2022-10-17T22:06:43.991Z,15.79
2022-10-17T22:09:45.656Z,15.80
2022-10-17T22:12:47.069Z,15.78
2022-10-17T22:15:48.571Z,15.76
2022-10-17T22:18:50.306Z,15.73
2022-10-17T22:21:54.051Z,15.72
2022-10-17T22:24:55.849Z,15.72
2022-10-17T22:27:57.434Z,15.70
2022-10-17T22:30:58.968Z,15.69
2022-10-17T22:34:00.664Z,15.67
2022-10-17T22:37:03.679Z,15.66
2022-10-17T22:40:06.194Z,15.64
2022-10-17T22:43:07.658Z,15.63
2022-10-17T22:46:10.112Z,15.63
2022-10-17T22:49:11.685Z,15.60
2022-10-17T22:52:14.504Z,15.60
2022-10-17T22:55:16.140Z,15.59
2022-10-17T22:58:17.727Z,15.60
2022-10-17T23:01:20.283Z,15.59
2022-10-17T23:04:21.771Z,15.56
2022-10-17T23:07:24.882Z,15.54
2022-10-17T23:10:26.329Z,15.54
2022-10-17T23:13:29.092Z,15.51
2022-10-17T23:16:30.556Z,15.49
2022-10-17T23:19:32.523Z,15.48
2022-10-17T23:22:35.384Z,15.45
2022-10-17T23:25:37.038Z,15.42
2022-10-17T23:28:38.772Z,15.41
2022-10-17T23:31:51.065Z,15.44
2022-10-17T23:34:53.291Z,15.42
2022-10-17T23:37:56.383Z,15.37
2022-10-17T23:40:57.971Z,15.38
2022-10-17T23:43:59.631Z,15.40
2022-10-17T23:47:01.286Z,15.38
2022-10-17T23:50:03.035Z,15.36
2022-10-17T23:53:05.990Z,15.37
2022-10-17T23:56:08.379Z,15.35
2022-10-17T23:59:10.146Z,15.36
